Time;durP1;ratioP1;P1;durP2;ratioP2;P2;SDS_P1;SDS_P2;PMS_P1;PMS_P2;Temp;Humidity;BMP_temperature;BMP_pressure;BME280_temperature;BME280_humidity;BME280_pressure;Samples;Min_cycle;Max_cycle;Signal;HPM_P1;HPM_P2
2024/01/20 00:00:57;;;;;;;27.00;14.30;;;;;;;-0.43;100.00;100872.28;108585;1282;23042;-81
2024/01/20 00:03:47;;;;;;;30.80;16.00;;;;;;;-0.51;100.00;100867.89;108559;1282;22043;-79
2024/01/20 00:06:21;;;;;;;23.80;14.50;;;;;;;-0.51;100.00;100874.05;108339;1287;22005;-79
2024/01/20 00:08:56;;;;;;;28.10;16.00;;;;;;;-0.57;100.00;100872.93;108249;1291;23080;-79
2024/01/20 00:11:38;;;;;;;24.60;15.10;;;;;;;-0.61;100.00;100865.52;108122;1283;21995;-80
2024/01/20 00:14:19;;;;;;;27.10;14.20;;;;;;;-0.65;100.00;100866.48;107795;1278;23817;-80
2024/01/20 00:17:08;;;;;;;23.70;14.80;;;;;;;-0.71;100.00;100870.31;107913;1291;23783;-79
2024/01/20 00:19:57;;;;;;;17.40;11.30;;;;;;;-0.75;100.00;100865.62;107344;1296;23103;-79
2024/01/20 00:22:34;;;;;;;20.20;13.60;;;;;;;-0.80;100.00;100860.24;107299;1296;22017;-80
2024/01/20 00:25:05;;;;;;;23.10;12.40;;;;;;;-0.83;100.00;100863.63;107903;1292;23077;-79
2024/01/20 00:27:41;;;;;;;22.20;13.50;;;;;;;-0.81;100.00;100863.31;108187;1288;22076;-78
2024/01/20 00:30:17;;;;;;;24.20;13.30;;;;;;;-0.80;100.00;100860.92;107865;1291;22009;-79
2024/01/20 00:33:00;;;;;;;24.30;14.80;;;;;;;-0.81;100.00;100857.15;107613;1295;22036;-78
2024/01/20 00:35:44;;;;;;;;;;;;;;;;;;;;;
2024/01/20 00:38:31;;;;;;;21.40;13.50;;;;;;;-0.88;100.00;100846.10;107506;1294;22022;-80
2024/01/20 00:41:13;;;;;;;20.40;12.00;;;;;;;-0.89;100.00;100848.30;107684;1294;23083;-80
2024/01/20 00:43:47;;;;;;;20.90;12.90;;;;;;;-0.90;100.00;100852.56;107326;1298;22009;-79
2024/01/20 00:46:18;;;;;;;21.10;12.90;;;;;;;-0.92;100.00;100850.14;107481;1296;22024;-80
2024/01/20 00:48:51;;;;;;;18.20;11.50;;;;;;;-0.95;100.00;100850.76;107333;1295;22022;-80
2024/01/20 00:51:20;;;;;;;20.90;11.90;;;;;;;-0.98;100.00;100858.05;107665;1292;22053;-80
2024/01/20 00:54:01;;;;;;;21.60;12.90;;;;;;;-1.02;100.00;100861.07;107789;1292;22683;-79
2024/01/20 00:56:32;;;;;;;19.80;13.10;;;;;;;-1.03;100.00;100865.15;107861;1287;22313;-80
2024/01/20 00:59:09;;;;;;;21.40;14.00;;;;;;;-1.03;100.00;100871.46;108055;1287;22778;-79
2024/01/20 01:01:42;;;;;;;24.00;16.30;;;;;;;-1.02;100.00;100881.05;108380;1282;22001;-81
2024/01/20 01:04:18;;;;;;;22.50;14.20;;;;;;;-1.04;100.00;100883.09;108081;1287;24408;-79
2024/01/20 01:06:48;;;;;;;27.70;13.80;;;;;;;-1.07;100.00;100888.83;107629;1292;22042;-79
2024/01/20 01:09:19;;;;;;;21.60;12.80;;;;;;;-1.09;100.00;100885.55;107789;1292;23667;-80
2024/01/20 01:11:49;;;;;;;;;;;;;;;-1.08;100.00;100890.84;107345;1297;21987;-77
2024/01/20 01:14:18;;;;;;;24.80;13.10;;;;;;;-1.14;100.00;100895.36;107553;1296;22055;-81
2024/01/20 01:16:47;;;;;;;21.30;12.80;;;;;;;-1.11;100.00;100893.86;107514;1296;23086;-81
2024/01/20 01:19:23;;;;;;;26.00;13.70;;;;;;;-1.09;100.00;100902.12;107330;1296;22486;-79
2024/01/20 01:21:52;;;;;;;20.80;12.90;;;;;;;-1.05;100.00;100903.20;107155;1297;22017;-80
2024/01/20 01:24:22;;;;;;;21.50;12.60;;;;;;;-1.03;100.00;100907.86;107541;1292;22013;-80
2024/01/20 01:26:58;;;;;;;23.40;13.00;;;;;;;-1.00;100.00;100914.40;108026;1292;22130;-80
2024/01/20 01:29:27;;;;;;;24.50;13.70;;;;;;;-0.99;100.00;100914.42;108084;1288;22026;-80
2024/01/20 01:32:03;;;;;;;21.00;12.30;;;;;;;-0.95;100.00;100916.02;108138;1288;23793;-79
2024/01/20 01:34:33;;;;;;;25.20;12.30;;;;;;;-0.90;100.00;100915.09;108092;1288;22044;-80
2024/01/20 01:37:07;;;;;;;18.20;12.20;;;;;;;-0.89;100.00;100910.67;108291;1288;22018;-81
2024/01/20 01:39:36;;;;;;;18.50;11.90;;;;;;;-0.89;100.00;100912.38;108053;1286;22080;-79
2024/01/20 01:42:06;;;;;;;20.30;12.80;;;;;;;-0.88;100.00;100913.27;108168;1286;22844;-81
2024/01/20 01:44:37;;;;;;;18.90;12.10;;;;;;;-0.83;100.00;100909.93;108176;1286;22187;-79
2024/01/20 01:47:12;;;;;;;18.30;11.70;;;;;;;-0.80;100.00;100906.89;108420;1286;22999;-81
2024/01/20 01:49:46;;;;;;;14.60;9.70;;;;;;;-0.78;100.00;100903.52;107784;1289;21955;-81
2024/01/20 01:52:23;;;;;;;17.30;10.80;;;;;;;-0.76;100.00;100900.47;107534;1293;22005;-81
2024/01/20 01:55:00;;;;;;;18.20;12.00;;;;;;;-0.78;100.00;100901.13;107736;1293;22006;-81
2024/01/20 01:57:34;;;;;;;19.90;10.80;;;;;;;-0.79;100.00;100899.41;107769;1291;22006;-80
2024/01/20 02:00:11;;;;;;;21.90;12.20;;;;;;;-0.80;100.00;100898.52;107856;1291;22002;-81
2024/01/20 02:02:55;;;;;;;20.20;11.00;;;;;;;-0.84;100.00;100894.70;107853;1291;22006;-79
2024/01/20 02:05:39;;;;;;;17.20;11.90;;;;;;;-0.84;100.00;100895.22;107870;1291;23067;-78
2024/01/20 02:08:10;;;;;;;16.70;8.00;;;;;;;-0.80;100.00;100890.34;108125;1288;23064;-80
2024/01/20 02:10:42;;;;;;;21.00;11.20;;;;;;;-0.76;100.00;100892.27;108254;1282;22153;-79
2024/01/20 02:13:18;;;;;;;15.50;10.10;;;;;;;-0.72;100.00;100891.98;108565;1282;23634;-79
2024/01/20 02:16:00;;;;;;;17.90;11.40;;;;;;;-0.69;100.00;100899.56;108491;1282;21987;-80
2024/01/20 02:18:30;;;;;;;17.60;10.80;;;;;;;-0.69;100.00;100898.38;108504;1282;22058;-80
2024/01/20 02:21:24;;;;;;;18.90;10.40;;;;;;;-0.69;100.00;100895.81;108511;1280;21995;-80
2024/01/20 02:24:12;;;;;;;15.30;11.50;;;;;;;-0.74;100.00;100896.23;108472;1282;23691;-78
2024/01/20 02:26:59;;;;;;;17.80;10.10;;;;;;;-0.76;100.00;100896.20;108599;1282;22003;-80
2024/01/20 02:29:39;;;;;;;15.90;10.30;;;;;;;-0.77;100.00;100891.73;108508;1282;22991;-79
2024/01/20 02:32:26;;;;;;;15.40;10.20;;;;;;;-0.77;100.00;100892.08;108525;1282;21991;-79
2024/01/20 02:35:03;;;;;;;15.20;9.60;;;;;;;-0.77;100.00;100894.64;108463;1282;21999;-80
2024/01/20 02:37:33;;;;;;;24.10;10.90;;;;;;;-0.79;100.00;100892.21;108258;1282;21996;-80
2024/01/20 02:40:07;;;;;;;18.70;11.00;;;;;;;-0.79;100.00;100890.33;108475;1282;23717;-78
2024/01/20 02:42:39;;;;;;;14.70;9.60;;;;;;;-0.78;100.00;100891.38;108690;1282;21971;-79
2024/01/20 02:45:13;;;;;;;16.70;10.50;;;;;;;-0.76;100.00;100892.61;108495;1282;22757;-79
2024/01/20 02:47:46;;;;;;;17.00;9.90;;;;;;;-0.74;100.00;100895.22;108423;1281;22886;-80
2024/01/20 02:50:21;;;;;;;18.30;10.00;;;;;;;-0.70;100.00;100899.22;108177;1288;22008;-80
2024/01/20 02:52:57;;;;;;;14.80;8.30;;;;;;;-0.67;100.00;100900.28;108167;1288;22125;-82
2024/01/20 02:55:35;;;;;;;12.40;8.10;;;;;;;-0.68;100.00;100901.48;108247;1291;23905;-80
2024/01/20 02:58:08;;;;;;;16.40;9.80;;;;;;;-0.72;100.00;100908.75;107831;1291;24243;-80
2024/01/20 03:00:38;;;;;;;13.20;9.70;;;;;;;-0.74;100.00;100910.41;107599;1294;24505;-80
2024/01/20 03:03:10;;;;;;;16.40;8.70;;;;;;;-0.74;100.00;100918.46;107416;1294;23743;-81
2024/01/20 03:05:54;;;;;;;16.70;11.30;;;;;;;-0.74;100.00;100923.06;107371;1294;22812;-81
2024/01/20 03:08:32;;;;;;;14.20;9.60;;;;;;;-0.73;100.00;100928.40;107460;1294;22145;-81
2024/01/20 03:11:01;;;;;;;17.80;12.00;;;;;;;-0.71;100.00;100930.14;107656;1294;22002;-81
2024/01/20 03:13:30;;;;;;;16.00;9.90;;;;;;;-0.72;100.00;100927.05;107504;1291;23071;-80
2024/01/20 03:16:13;;;;;;;17.70;10.70;;;;;;;-0.71;100.00;100928.41;108056;1287;22010;-79
2024/01/20 03:18:44;;;;;;;15.10;9.80;;;;;;;-0.74;100.00;100925.46;108371;1282;22112;-80
2024/01/20 03:21:17;;;;;;;18.90;10.10;;;;;;;-0.76;100.00;100927.48;108523;1282;22222;-81
2024/01/20 03:23:58;;;;;;;17.20;9.80;;;;;;;-0.77;100.00;100931.22;108525;1282;24472;-81
2024/01/20 03:26:43;;;;;;;16.60;10.00;;;;;;;-0.78;100.00;100945.05;108344;1282;229347;-81
2024/01/20 03:29:18;;;;;;;13.50;8.90;;;;;;;-0.78;100.00;100944.53;108561;1282;21957;-80
2024/01/20 03:31:50;;;;;;;14.00;8.70;;;;;;;-0.80;100.00;100949.63;108501;1282;21994;-79
2024/01/20 03:34:25;;;;;;;15.80;9.00;;;;;;;-0.81;100.00;100953.20;108510;1282;22057;-79
2024/01/20 03:36:58;;;;;;;15.30;9.90;;;;;;;-0.78;100.00;100948.98;108448;1282;21997;-79
2024/01/20 03:39:36;;;;;;;27.80;14.80;;;;;;;-0.76;100.00;100949.00;108493;1282;23641;-80
2024/01/20 03:42:12;;;;;;;20.90;12.20;;;;;;;-0.78;100.00;100953.09;108313;1286;22671;-79
2024/01/20 03:44:47;;;;;;;25.70;15.30;;;;;;;-0.81;100.00;100950.13;108334;1286;23674;-79
2024/01/20 03:47:16;;;;;;;17.50;10.30;;;;;;;-0.83;100.00;100952.48;108046;1286;23695;-80
2024/01/20 03:49:53;;;;;;;17.10;10.00;;;;;;;-0.81;100.00;100953.54;107762;1291;23751;-79
2024/01/20 03:52:26;;;;;;;13.40;9.10;;;;;;;-0.84;100.00;100956.39;107755;1290;22046;-79
2024/01/20 03:55:09;;;;;;;25.80;17.80;;;;;;;-0.86;100.00;100963.54;107772;1291;22987;-78
2024/01/20 03:57:38;;;;;;;24.70;14.00;;;;;;;-0.85;100.00;100972.27;107570;1293;22154;-79
2024/01/20 04:00:10;;;;;;;25.30;17.40;;;;;;;-0.84;100.00;100972.11;107583;1290;22001;-78
2024/01/20 04:02:41;;;;;;;11.80;10.80;;;;;;;-0.83;100.00;100974.69;107727;1291;22004;-80
2024/01/20 04:05:10;;;;;;;20.00;14.80;;;;;;;-0.83;100.00;100974.20;107900;1291;22777;-78
2024/01/20 04:07:44;;;;;;;14.70;9.90;;;;;;;-0.82;100.00;100976.25;107913;1285;23698;-81
2024/01/20 04:10:19;;;;;;;69.10;45.90;;;;;;;-0.82;100.00;100980.87;107820;1291;23794;-82
2024/01/20 04:12:57;;;;;;;16.90;11.60;;;;;;;-0.82;100.00;100979.16;107263;1296;23795;-81
2024/01/20 04:15:32;;;;;;;13.50;9.60;;;;;;;-0.84;100.00;100977.09;107126;1299;22458;-83
2024/01/20 04:18:01;;;;;;;15.20;9.20;;;;;;;-0.83;100.00;100974.70;107274;1299;22015;-81
2024/01/20 04:20:30;;;;;;;60.20;40.90;;;;;;;-0.83;100.00;100978.63;107317;1300;23656;-80
2024/01/20 04:23:05;;;;;;;;;;;;;;;-0.83;100.00;100982.90;107109;1300;22073;-83
2024/01/20 04:25:36;;;;;;;34.50;21.50;;;;;;;-0.90;100.00;100983.45;107146;1300;22038;-82
2024/01/20 04:28:18;;;;;;;31.60;18.60;;;;;;;-0.93;100.00;100988.86;106847;1299;22015;-84
2024/01/20 04:30:47;;;;;;;24.80;14.20;;;;;;;-0.93;100.00;100986.80;107225;1296;23092;-77
2024/01/20 04:33:16;;;;;;;15.60;9.90;;;;;;;-0.93;100.00;100985.27;107787;1290;22038;-81
2024/01/20 04:35:46;;;;;;;20.60;11.90;;;;;;;-0.89;100.00;100990.12;108188;1283;22001;-81
2024/01/20 04:38:19;;;;;;;16.70;11.30;;;;;;;-0.86;100.00;100989.68;108158;1289;22047;-79
2024/01/20 04:40:53;;;;;;;19.90;11.00;;;;;;;-0.82;100.00;100991.63;108186;1288;22065;-79
2024/01/20 04:43:35;;;;;;;21.00;12.40;;;;;;;-0.81;100.00;100987.89;108185;1286;22018;-80
2024/01/20 04:46:28;;;;;;;19.20;11.70;;;;;;;-0.78;100.00;100988.11;108346;1282;24360;-79
2024/01/20 04:49:00;;;;;;;19.80;12.00;;;;;;;-0.78;100.00;100985.91;108068;1286;23059;-80
2024/01/20 04:51:34;;;;;;;19.10;11.50;;;;;;;-0.76;100.00;100984.73;108076;1286;23770;-79
2024/01/20 04:54:06;;;;;;;15.90;10.10;;;;;;;-0.79;100.00;100989.64;108068;1288;22030;-80
2024/01/20 04:56:36;;;;;;;20.50;13.00;;;;;;;-0.82;100.00;100984.80;108054;1288;22282;-78
2024/01/20 04:59:06;;;;;;;12.20;10.70;;;;;;;-0.80;100.00;100981.25;108109;1288;23641;-80
2024/01/20 05:01:35;;;;;;;17.30;10.60;;;;;;;-0.78;100.00;100965.90;108147;1283;22777;-78
2024/01/20 05:04:10;;;;;;;20.80;13.10;;;;;;;-0.78;100.00;100967.44;108006;1288;22021;-79
2024/01/20 05:06:38;;;;;;;19.00;12.80;;;;;;;-0.77;100.00;100971.06;108181;1285;23764;-78
2024/01/20 05:09:08;;;;;;;20.50;11.90;;;;;;;-0.76;100.00;100971.08;108179;1285;22547;-80
2024/01/20 05:11:38;;;;;;;19.80;11.00;;;;;;;-0.75;100.00;100986.98;108345;1282;22049;-81
2024/01/20 05:14:16;;;;;;;14.50;9.70;;;;;;;-0.74;100.00;100992.45;108468;1279;22001;-80
2024/01/20 05:16:48;;;;;;;26.90;13.60;;;;;;;-0.74;100.00;100997.08;108499;1282;22000;-79
2024/01/20 05:19:22;;;;;;;27.50;13.50;;;;;;;-0.75;100.00;101002.36;108548;1276;22001;-81
2024/01/20 05:22:00;;;;;;;17.80;11.50;;;;;;;-0.70;100.00;101007.75;108348;1286;22008;-79
2024/01/20 05:24:43;;;;;;;16.90;10.90;;;;;;;-0.70;100.00;101010.48;108242;1286;23018;-79
2024/01/20 05:27:35;;;;;;;16.10;11.40;;;;;;;-0.71;100.00;101007.91;108117;1286;23783;-79
2024/01/20 05:30:35;;;;;;;;;;;;;;;-0.74;100.00;101012.96;108345;1286;23094;-79
2024/01/20 05:33:08;;;;;;;21.20;12.60;;;;;;;-0.75;100.00;101009.19;108102;1286;23638;-78
2024/01/20 05:35:38;;;;;;;19.30;10.00;;;;;;;-0.75;100.00;101013.28;108265;1285;22006;-79
2024/01/20 05:38:29;;;;;;;15.20;9.70;;;;;;;-0.73;100.00;101014.70;108130;1286;22020;-79
2024/01/20 05:40:59;;;;;;;16.30;11.20;;;;;;;-0.70;100.00;101025.20;108573;1282;21992;-80
2024/01/20 05:43:31;;;;;;;17.70;11.30;;;;;;;-0.68;100.00;101023.67;108423;1282;22018;-80
2024/01/20 05:46:07;;;;;;;14.80;11.30;;;;;;;-0.66;100.00;101017.73;108491;1281;21998;-80
2024/01/20 05:48:37;;;;;;;18.90;10.70;;;;;;;-0.65;100.00;101027.16;108475;1282;21995;-80
2024/01/20 05:51:08;;;;;;;16.10;10.80;;;;;;;-0.63;100.00;101029.24;108503;1282;21994;-80
2024/01/20 05:53:37;;;;;;;16.00;12.40;;;;;;;-0.63;100.00;101026.68;108474;1281;21551;-78
2024/01/20 05:56:05;;;;;;;15.20;10.50;;;;;;;-0.64;100.00;101029.74;108492;1281;22010;-79
2024/01/20 05:58:36;;;;;;;16.20;11.00;;;;;;;-0.66;100.00;101028.68;108463;1282;22047;-79
2024/01/20 06:01:05;;;;;;;20.50;10.60;;;;;;;-0.65;100.00;101047.67;108130;1286;23120;-77
2024/01/20 06:03:34;;;;;;;15.10;11.10;;;;;;;-0.67;100.00;101046.27;108181;1286;22064;-78
2024/01/20 06:06:04;;;;;;;14.60;10.40;;;;;;;-0.67;100.00;101047.48;108360;1286;22182;-78
2024/01/20 06:08:34;;;;;;;16.30;10.30;;;;;;;-0.65;100.00;101045.97;108126;1286;21996;-77
2024/01/20 06:11:02;;;;;;;21.60;13.10;;;;;;;-0.65;100.00;101048.54;108126;1286;23258;-79
2024/01/20 06:13:37;;;;;;;23.60;11.50;;;;;;;-0.64;100.00;101049.58;108190;1286;22769;-79
2024/01/20 06:16:35;;;;;;;15.80;10.80;;;;;;;-0.63;100.00;101045.15;108232;1286;22001;-79
2024/01/20 06:19:57;;;;;;;16.00;10.60;;;;;;;-0.66;100.00;101050.57;108482;1281;23005;-82
2024/01/20 06:22:30;;;;;;;17.90;12.00;;;;;;;-0.65;100.00;101052.80;108520;1282;21996;-80
2024/01/20 06:25:02;;;;;;;18.00;11.10;;;;;;;-0.63;100.00;101053.36;108512;1281;22205;-81
2024/01/20 06:27:48;;;;;;;16.40;11.50;;;;;;;-0.61;100.00;101057.48;108193;1285;23791;-82
2024/01/20 06:30:27;;;;;;;22.80;14.10;;;;;;;-0.59;100.00;101060.60;107973;1291;21992;-81
2024/01/20 06:33:14;;;;;;;20.90;12.90;;;;;;;-0.58;100.00;101060.80;107826;1290;22001;-79
2024/01/20 06:36:21;;;;;;;14.70;10.70;;;;;;;-0.59;100.00;101064.20;107920;1290;23751;-80
2024/01/20 06:39:11;;;;;;;19.40;12.70;;;;;;;-0.61;100.00;101058.34;107375;1296;22014;-80
2024/01/20 06:41:45;;;;;;;19.50;13.50;;;;;;;-0.60;100.00;101056.48;107485;1295;22015;-81
2024/01/20 06:44:21;;;;;;;17.80;12.70;;;;;;;-0.61;100.00;101059.89;107734;1295;22022;-81
2024/01/20 06:47:08;;;;;;;19.50;13.10;;;;;;;-0.60;100.00;101058.89;107693;1292;23888;-80
2024/01/20 06:49:50;;;;;;;19.60;12.80;;;;;;;-0.59;100.00;101051.72;108167;1291;23760;-81
2024/01/20 06:52:50;;;;;;;20.30;11.70;;;;;;;-0.56;100.00;101055.70;107749;1292;23674;-80
2024/01/20 06:55:30;;;;;;;24.60;13.40;;;;;;;-0.53;100.00;101053.88;107130;1300;22016;-81
2024/01/20 06:58:06;;;;;;;17.70;12.40;;;;;;;-0.51;100.00;101056.50;106841;1301;23181;-80
2024/01/20 07:00:46;;;;;;;19.10;11.00;;;;;;;-0.50;100.00;101059.58;107145;1301;22081;-79
2024/01/20 07:03:32;;;;;;;19.10;11.80;;;;;;;-0.50;100.00;101057.70;107281;1301;22089;-80
2024/01/20 07:06:27;;;;;;;24.90;16.70;;;;;;;-0.52;100.00;101050.64;107357;1301;22018;-79
2024/01/20 07:09:05;;;;;;;30.60;21.50;;;;;;;-0.54;100.00;101057.95;107225;1301;23643;-79
2024/01/20 07:11:49;;;;;;;40.60;27.60;;;;;;;-0.56;100.00;101054.16;106768;1305;23069;-80
2024/01/20 07:14:29;;;;;;;;;;;;;;;-0.56;100.00;101057.75;106974;1305;23656;-79
2024/01/20 07:17:11;;;;;;;22.30;15.70;;;;;;;-0.54;100.00;101064.63;107126;1300;22011;-78
2024/01/20 07:19:49;;;;;;;18.50;13.50;;;;;;;-0.53;100.00;101064.84;107424;1295;22000;-80
2024/01/20 07:22:37;;;;;;;14.90;10.60;;;;;;;-0.52;100.00;101068.95;107892;1296;22043;-78
2024/01/20 07:25:15;;;;;;;16.70;11.00;;;;;;;-0.49;100.00;101062.85;107760;1290;23720;-79
2024/01/20 07:27:49;;;;;;;19.00;11.90;;;;;;;-0.49;100.00;101065.77;108179;1291;23699;-80
2024/01/20 07:30:27;;;;;;;21.60;13.10;;;;;;;-0.50;100.00;101071.55;108004;1294;22030;-77
2024/01/20 07:33:00;;;;;;;19.40;12.40;;;;;;;-0.51;100.00;101075.13;107441;1300;22075;-79
2024/01/20 07:35:34;;;;;;;23.00;12.80;;;;;;;-0.54;100.00;101074.73;107120;1300;22044;-78
2024/01/20 07:38:06;;;;;;;19.30;10.70;;;;;;;-0.56;100.00;101075.89;107140;1299;22425;-80
2024/01/20 07:40:42;;;;;;;15.80;10.80;;;;;;;-0.56;100.00;101084.60;107321;1300;22027;-79
2024/01/20 07:43:55;;;;;;;;;;;;;;;;;;;;;
2024/01/20 07:46:30;;;;;;;19.90;12.80;;;;;;;-0.55;100.00;101092.98;107654;1297;23750;-79
2024/01/20 07:49:12;;;;;;;18.10;13.10;;;;;;;-0.55;100.00;101098.98;107514;1295;22017;-80
2024/01/20 07:51:50;;;;;;;18.00;12.20;;;;;;;-0.53;100.00;101108.77;107919;1291;23735;-79
2024/01/20 07:54:21;;;;;;;17.60;11.00;;;;;;;-0.52;100.00;101107.42;108123;1289;23046;-79
2024/01/20 07:57:06;;;;;;;15.80;10.90;;;;;;;-0.52;100.00;101110.49;108102;1289;23061;-77
2024/01/20 07:59:38;;;;;;;17.40;13.10;;;;;;;-0.55;100.00;101110.59;108230;1289;23202;-78
2024/01/20 08:02:15;;;;;;;21.40;13.40;;;;;;;-0.56;100.00;101111.27;107992;1291;23081;-78
2024/01/20 08:04:50;;;;;;;14.10;10.10;;;;;;;-0.54;100.00;101119.34;108098;1288;22435;-78
2024/01/20 08:07:23;;;;;;;24.20;12.90;;;;;;;-0.53;100.00;101125.70;108101;1289;23753;-81
2024/01/20 08:10:13;;;;;;;16.90;12.70;;;;;;;-0.53;100.00;101136.80;108355;1289;22004;-80
2024/01/20 08:13:00;;;;;;;20.40;12.00;;;;;;;-0.67;100.00;101112.25;108517;1284;23740;-78
2024/01/20 08:15:35;;;;;;;25.50;12.40;;;;;;;-0.70;100.00;101117.15;108458;1284;22035;-78
2024/01/20 08:18:29;;;;;;;17.60;13.40;;;;;;;-0.60;100.00;101137.69;108377;1284;21995;-78
2024/01/20 08:21:12;;;;;;;26.60;13.10;;;;;;;-0.60;100.00;101134.77;108336;1281;22095;-79
2024/01/20 08:27:01;;;;;;;22.10;14.50;;;;;;;-0.62;100.00;101142.45;107826;1292;22072;-78
2024/01/20 08:29:32;;;;;;;19.30;14.00;;;;;;;-0.63;100.00;101137.80;108076;1292;22012;-79
2024/01/20 08:32:21;;;;;;;18.60;12.60;;;;;;;-0.64;100.00;101141.21;107934;1291;22016;-77
2024/01/20 08:35:05;;;;;;;18.90;13.10;;;;;;;-0.64;100.00;101148.73;107894;1282;23998;-79
2024/01/20 08:37:52;;;;;;;31.80;13.70;;;;;;;-0.62;100.00;101149.27;107798;1292;24118;-78
2024/01/20 08:40:40;;;;;;;22.30;14.80;;;;;;;-0.60;100.00;101144.70;107676;1293;22783;-78
2024/01/20 08:43:32;;;;;;;25.50;14.00;;;;;;;-0.59;100.00;101147.80;107928;1289;22787;-77
2024/01/20 08:46:18;;;;;;;14.10;11.80;;;;;;;-0.57;100.00;101145.28;107876;1292;22033;-79
2024/01/20 08:49:01;;;;;;;16.00;10.40;;;;;;;-0.53;100.00;101153.73;107546;1288;22027;-78
2024/01/20 08:52:15;;;;;;;25.60;14.20;;;;;;;-0.52;100.00;101155.48;107428;1298;23156;-79
2024/01/20 08:54:55;;;;;;;;;;;;;;;-0.52;100.00;101157.35;107417;1298;23088;-78
2024/01/20 08:57:47;;;;;;;25.80;14.90;;;;;;;-0.48;100.00;101153.32;107385;1290;22002;-79
2024/01/20 09:00:46;;;;;;;24.70;14.90;;;;;;;-0.40;100.00;101156.03;108045;1290;24248;-79
2024/01/20 09:04:01;;;;;;;23.70;16.90;;;;;;;-0.32;100.00;101159.27;108471;1286;23059;-80
2024/01/20 09:07:09;;;;;;;18.20;14.50;;;;;;;-0.24;100.00;101157.05;108177;1292;23731;-80
2024/01/20 09:09:44;;;;;;;23.10;14.70;;;;;;;-0.18;100.00;101160.25;108095;1286;22011;-78
2024/01/20 09:12:37;;;;;;;25.20;16.80;;;;;;;-0.17;100.00;101164.20;108314;1286;22317;-79
2024/01/20 09:15:25;;;;;;;22.10;15.10;;;;;;;-0.13;100.00;101162.73;108220;1286;22360;-80
2024/01/20 09:18:11;;;;;;;19.70;14.40;;;;;;;-0.08;100.00;101159.73;107852;1291;23061;-79
2024/01/20 09:21:19;;;;;;;22.10;16.00;;;;;;;-0.06;100.00;101163.02;107871;1291;22020;-78
2024/01/20 09:24:03;;;;;;;20.70;16.30;;;;;;;-0.08;100.00;101169.33;107917;1286;23167;-79
2024/01/20 09:26:49;;;;;;;25.80;18.40;;;;;;;-0.07;100.00;101173.78;108177;1286;21994;-79
2024/01/20 09:29:34;;;;;;;25.90;16.20;;;;;;;-0.07;100.00;101172.43;108196;1286;22007;-80
2024/01/20 09:32:17;;;;;;;31.30;20.10;;;;;;;-0.07;100.00;101167.46;108433;1286;22758;-79
2024/01/20 09:34:58;;;;;;;26.00;20.00;;;;;;;-0.06;100.00;101164.75;108241;1286;22012;-77
2024/01/20 09:37:52;;;;;;;23.90;19.70;;;;;;;-0.01;100.00;101161.77;108634;1280;23005;-79
2024/01/20 09:40:28;;;;;;;28.00;21.60;;;;;;;0.04;100.00;101158.92;108588;1280;22046;-78
2024/01/20 09:43:04;;;;;;;21.40;17.20;;;;;;;0.08;100.00;101157.48;108621;1280;21988;-79
2024/01/20 09:45:44;;;;;;;25.50;19.70;;;;;;;0.13;100.00;101152.26;108834;1280;22012;-79
2024/01/20 09:48:19;;;;;;;26.50;17.80;;;;;;;0.22;100.00;101160.96;108577;1280;21988;-80
2024/01/20 09:51:07;;;;;;;22.60;18.60;;;;;;;0.39;100.00;101156.13;108815;1280;22012;-79
2024/01/20 09:53:48;;;;;;;25.60;18.70;;;;;;;0.56;100.00;101152.80;108476;1283;22019;-80
2024/01/20 09:56:29;;;;;;;26.50;18.50;;;;;;;0.75;100.00;101156.17;108491;1283;23631;-80
2024/01/20 09:59:15;;;;;;;25.00;18.70;;;;;;;0.96;100.00;101149.13;108469;1283;22022;-80
2024/01/20 10:02:05;;;;;;;28.80;20.40;;;;;;;1.12;100.00;101146.27;108770;1274;23052;-78
2024/01/20 10:05:31;;;;;;;27.60;20.70;;;;;;;1.23;100.00;101142.63;108486;1283;22010;-79
2024/01/20 10:08:22;;;;;;;28.40;20.60;;;;;;;1.33;100.00;101145.85;108517;1283;21998;-79
2024/01/20 10:11:25;;;;;;;29.60;21.10;;;;;;;1.47;100.00;101144.30;108617;1280;22040;-80
2024/01/20 10:14:15;;;;;;;33.90;20.80;;;;;;;1.61;100.00;101136.06;108622;1280;22471;-78
2024/01/20 10:16:54;;;;;;;27.30;20.30;;;;;;;1.72;100.00;101135.51;108530;1280;22007;-79
2024/01/20 10:19:31;;;;;;;26.60;20.80;;;;;;;1.81;100.00;101138.00;108395;1284;23631;-79
2024/01/20 10:22:17;;;;;;;27.10;20.40;;;;;;;1.90;100.00;101136.05;108268;1284;22119;-80
2024/01/20 10:24:55;;;;;;;21.00;16.10;;;;;;;1.96;100.00;101131.13;108651;1284;22129;-78
2024/01/20 10:30:32;;;;;;;27.00;17.60;;;;;;;1.93;100.00;101141.23;108012;1289;22212;-77
2024/01/20 10:33:07;;;;;;;22.20;16.50;;;;;;;1.93;100.00;101153.06;108093;1289;22057;-79
2024/01/20 10:35:46;;;;;;;23.70;18.30;;;;;;;1.83;100.00;101144.90;108088;1289;22784;-79
2024/01/20 10:38:31;;;;;;;23.80;19.00;;;;;;;1.78;100.00;101145.35;108024;1289;22482;-78
2024/01/20 10:41:22;;;;;;;22.70;18.40;;;;;;;1.83;100.00;101164.64;108175;1289;22020;-79
2024/01/20 10:44:13;;;;;;;22.00;17.50;;;;;;;1.78;100.00;101161.83;108105;1289;22503;-78
2024/01/20 10:46:56;;;;;;;21.30;17.60;;;;;;;1.68;100.00;101162.24;108156;1291;22007;-78
2024/01/20 10:49:47;;;;;;;34.10;22.10;;;;;;;1.57;100.00;101154.38;108106;1288;23018;-79
2024/01/20 10:53:06;;;;;;;24.30;17.90;;;;;;;1.43;100.00;101142.38;108201;1288;22005;-79
2024/01/20 10:55:45;;;;;;;23.90;17.10;;;;;;;1.45;100.00;101155.61;108163;1284;23142;-78
2024/01/20 10:58:31;;;;;;;20.10;17.30;;;;;;;1.40;100.00;101155.38;108162;1289;23060;-79
2024/01/20 11:01:13;;;;;;;;;;;;;;;1.33;100.00;101152.88;107825;1293;23624;-79
2024/01/20 11:04:06;;;;;;;29.40;19.30;;;;;;;1.31;100.00;101156.95;107349;1294;22039;-78
2024/01/20 11:06:55;;;;;;;23.40;18.00;;;;;;;1.33;100.00;101164.71;107818;1293;22092;-78
2024/01/20 11:09:29;;;;;;;20.30;16.50;;;;;;;1.34;100.00;101169.70;107476;1298;22777;-78
2024/01/20 11:12:31;;;;;;;22.00;14.40;;;;;;;1.30;100.00;101177.20;107032;1301;22017;-76
2024/01/20 11:15:17;;;;;;;21.90;14.40;;;;;;;1.22;100.00;101177.42;107311;1300;22008;-74
2024/01/20 11:17:57;;;;;;;14.80;12.50;;;;;;;1.13;100.00;101173.89;106718;1305;23842;-76
2024/01/20 11:20:38;;;;;;;;;;;;;;;1.03;100.00;101174.42;106342;1306;23067;-78
2024/01/20 11:23:30;;;;;;;24.60;17.10;;;;;;;0.93;100.00;101172.22;106711;1300;22061;-80
2024/01/20 11:26:49;;;;;;;20.00;15.30;;;;;;;0.90;100.00;101164.98;106906;1303;22089;-80
2024/01/20 11:30:28;;;;;;;24.40;18.20;;;;;;;0.87;100.00;101162.69;107333;1292;21994;-79
2024/01/20 11:33:23;;;;;;;26.80;19.20;;;;;;;0.86;100.00;101165.77;107981;1291;22764;-84
2024/01/20 11:36:10;;;;;;;13.90;12.60;;;;;;;0.87;100.00;101163.57;107968;1292;22160;-82
2024/01/20 11:39:03;;;;;;;23.20;17.20;;;;;;;0.90;100.00;101156.06;108348;1286;22011;-83
2024/01/20 11:42:00;;;;;;;27.00;18.10;;;;;;;0.91;100.00;101151.11;108472;1286;22021;-77
2024/01/20 11:44:54;;;;;;;28.10;21.00;;;;;;;0.89;100.00;101147.30;108491;1286;22030;-79
2024/01/20 11:48:17;;;;;;;26.00;19.80;;;;;;;0.88;100.00;101147.97;108346;1286;21999;-78
2024/01/20 11:50:52;;;;;;;29.10;21.90;;;;;;;0.89;100.00;101144.23;108215;1286;22980;-78
2024/01/20 11:53:28;;;;;;;27.60;22.50;;;;;;;0.94;100.00;101141.56;108357;1281;22273;-80
2024/01/20 11:56:11;;;;;;;38.00;25.50;;;;;;;0.98;100.00;101139.56;108667;1281;22277;-79
2024/01/20 11:58:46;;;;;;;39.10;23.80;;;;;;;1.03;100.00;101132.25;108631;1281;21989;-78
2024/01/20 12:01:22;;;;;;;31.40;22.30;;;;;;;1.05;100.00;101131.77;108339;1286;21996;-76
2024/01/20 12:04:00;;;;;;;33.40;22.00;;;;;;;1.07;100.00;101137.45;108325;1286;22402;-79
2024/01/20 12:06:29;;;;;;;26.10;21.00;;;;;;;1.08;100.00;101136.60;108064;1286;22015;-78